Time;durP1;ratioP1;P1;durP2;ratioP2;P2;SDS_P1;SDS_P2;PMS_P1;PMS_P2;Temp;Humidity;BMP_temperature;BMP_pressure;BME280_temperature;BME280_humidity;BME280_pressure;Samples;Min_cycle;Max_cycle;Signal;HPM_P1;HPM_P2
2024/01/13 00:02:14;;;;;;;;;15.40;13.80;;;;;2.17;81.66;101043.41;5077752;28;8814;-58
2024/01/13 00:04:42;;;;;;;;;11.20;10.20;;;;;2.15;81.63;101037.34;5077284;28;8813;-61
2024/01/13 00:07:10;;;;;;;;;11.80;9.60;;;;;2.17;81.32;101032.03;5077004;28;8830;-60
2024/01/13 00:09:38;;;;;;;;;14.40;12.80;;;;;2.16;81.20;101025.91;5076783;28;8813;-59
2024/01/13 00:12:05;;;;;;;;;11.60;10.40;;;;;2.17;81.72;101016.25;5076480;28;8842;-58
2024/01/13 00:14:33;;;;;;;;;19.40;15.20;;;;;2.18;81.44;101012.72;5077022;28;8834;-58
2024/01/13 00:17:01;;;;;;;;;10.20;9.00;;;;;2.18;81.68;101012.72;5086224;28;8840;-60
2024/01/13 00:19:29;;;;;;;;;20.20;16.60;;;;;2.18;81.27;101013.59;5097509;28;8962;-58
2024/01/13 00:21:57;;;;;;;;;10.40;8.60;;;;;2.17;81.10;101005.75;5097756;28;8837;-59
2024/01/13 00:24:26;;;;;;;;;9.00;7.00;;;;;2.17;81.72;101006.63;5099307;28;8810;-59
2024/01/13 00:26:57;;;;;;;;;16.20;15.00;;;;;2.16;81.43;100999.66;5097743;28;8843;-59
2024/01/13 00:29:28;;;;;;;;;9.60;4.80;;;;;2.15;81.34;100995.31;5103338;28;8804;-58
2024/01/13 00:32:03;;;;;;;;;7.00;7.00;;;;;2.16;81.92;101004.91;5105778;28;8840;-58
2024/01/13 00:34:35;;;;;;;;;14.00;13.40;;;;;2.15;81.97;100995.31;5102366;28;8828;-59
2024/01/13 00:37:06;;;;;;;;;11.60;10.80;;;;;2.16;81.82;100991.78;5099295;28;8939;-59
2024/01/13 00:39:36;;;;;;;;;16.00;13.40;;;;;2.15;81.92;100995.31;5103822;28;8826;-60
2024/01/13 00:42:04;;;;;;;;;17.00;13.40;;;;;2.14;81.94;100993.56;5097505;28;8834;-59
2024/01/13 00:44:31;;;;;;;;;10.40;9.80;;;;;2.14;81.49;100988.31;5097595;28;8826;-58
2024/01/13 00:46:59;;;;;;;;;11.60;11.60;;;;;2.13;81.98;100991.00;5097629;28;8832;-58
2024/01/13 00:49:27;;;;;;;;;16.20;16.20;;;;;2.14;81.93;100983.06;5097895;28;8842;-57
2024/01/13 00:51:55;;;;;;;;;11.20;11.20;;;;;2.13;82.00;100981.34;5097322;28;8820;-61
2024/01/13 00:54:23;;;;;;;;;10.40;8.20;;;;;2.14;81.61;100977.81;5097204;28;8858;-60
2024/01/13 00:56:52;;;;;;;;;15.40;13.20;;;;;2.14;81.59;100976.97;5097244;28;8921;-60
2024/01/13 00:59:20;;;;;;;;;14.20;10.40;;;;;2.14;81.38;100980.44;5077237;28;8826;-58
2024/01/13 01:01:48;;;;;;;;;12.00;10.00;;;;;2.15;81.86;100970.78;5077068;28;8847;-59
2024/01/13 01:04:16;;;;;;;;;10.00;10.00;;;;;2.15;82.16;100974.28;5076721;28;8819;-59
2024/01/13 01:06:43;;;;;;;;;16.20;12.60;;;;;2.17;82.06;100982.97;5077123;28;8895;-61
2024/01/13 01:09:12;;;;;;;;;12.20;10.80;;;;;2.18;82.26;100975.94;5095246;28;8810;-60
2024/01/13 01:11:40;;;;;;;;;24.00;17.60;;;;;2.19;81.61;100980.31;5095793;28;8960;-61
2024/01/13 01:14:07;;;;;;;;;17.00;13.60;;;;;2.19;82.13;100970.66;5096477;28;8821;-58
2024/01/13 01:16:35;;;;;;;;;9.80;9.40;;;;;2.20;81.48;100961.03;5096856;28;8994;-59
2024/01/13 01:19:03;;;;;;;;;15.00;10.20;;;;;2.22;81.77;100961.84;5095662;28;8806;-59
2024/01/13 01:21:31;;;;;;;;;14.60;12.80;;;;;2.22;81.34;100962.72;5096640;28;8821;-58
2024/01/13 01:23:59;;;;;;;;;10.00;9.00;;;;;2.22;81.51;100951.31;5096390;28;8841;-59
2024/01/13 01:26:26;;;;;;;;;18.20;12.80;;;;;2.22;82.09;100959.19;5096143;28;8830;-59
2024/01/13 01:28:54;;;;;;;;;15.60;14.20;;;;;2.22;81.50;100957.44;5096527;28;8923;-58
2024/01/13 01:31:22;;;;;;;;;12.20;11.60;;;;;2.23;81.79;100950.41;5096196;28;8814;-61
2024/01/13 01:33:50;;;;;;;;;6.20;5.00;;;;;2.22;81.96;100954.81;5096412;28;8960;-59
2024/01/13 01:36:18;;;;;;;;;7.00;6.20;;;;;2.23;82.12;100951.28;5096053;28;8833;-61
2024/01/13 01:38:46;;;;;;;;;13.60;11.60;;;;;2.25;82.13;100946.84;5095700;28;8920;-61
2024/01/13 01:41:14;;;;;;;;;16.60;13.80;;;;;2.25;82.08;100946.84;5095566;28;8857;-61
2024/01/13 01:43:44;;;;;;;;;16.20;15.00;;;;;2.26;81.89;100945.09;5095564;28;8859;-61
2024/01/13 01:46:12;;;;;;;;;9.40;6.40;;;;;2.26;82.20;100948.56;5096329;28;8898;-61
2024/01/13 01:48:40;;;;;;;;;11.80;9.60;;;;;2.26;82.00;100945.94;5096159;28;8814;-61
2024/01/13 01:51:11;;;;;;;;;14.80;12.60;;;;;2.28;81.90;100954.63;5096420;28;9500;-61
2024/01/13 01:53:40;;;;;;;;;14.00;9.60;;;;;2.27;81.65;100944.19;5096134;28;8887;-61
2024/01/13 01:56:08;;;;;;;;;13.20;11.20;;;;;2.28;81.63;100935.38;5095706;28;9488;-61
2024/01/13 01:58:35;;;;;;;;;16.60;11.60;;;;;2.26;82.20;100935.41;5095007;28;8955;-61
2024/01/13 02:01:03;;;;;;;;;6.40;6.20;;;;;2.27;82.02;100938.91;5095641;28;8826;-61
2024/01/13 02:03:31;;;;;;;;;8.80;6.20;;;;;2.27;81.92;100938.91;5095987;28;8810;-61
2024/01/13 02:06:00;;;;;;;;;14.80;11.40;;;;;2.28;82.09;100941.47;5095918;28;8844;-62
2024/01/13 02:08:28;;;;;;;;;13.80;11.80;;;;;2.27;81.69;100938.91;5096165;28;8815;-61
2024/01/13 02:11:06;;;;;;;;;16.00;12.00;;;;;2.27;82.13;100934.50;5095646;28;8827;-62
2024/01/13 02:13:34;;;;;;;;;9.00;8.20;;;;;2.27;81.95;100934.50;5095799;28;8827;-61
2024/01/13 02:16:02;;;;;;;;;14.40;13.40;;;;;2.27;81.76;100937.13;5095783;28;8869;-61
2024/01/13 02:18:30;;;;;;;;;9.20;9.20;;;;;2.27;81.65;100931.03;5095705;28;8806;-61
2024/01/13 02:21:07;;;;;;;;;6.60;3.40;;;;;2.27;82.01;100924.00;5096029;28;8977;-61
2024/01/13 02:23:35;;;;;;;;;22.60;17.60;;;;;2.28;81.50;100917.84;5095858;28;8836;-61
2024/01/13 02:26:03;;;;;;;;;10.80;10.20;;;;;2.28;82.00;100915.22;5095617;28;8833;-62
2024/01/13 02:28:31;;;;;;;;;14.00;13.00;;;;;2.28;82.00;100909.94;5094607;28;8815;-61
2024/01/13 02:31:14;;;;;;;;;11.60;9.80;;;;;2.29;81.97;100910.81;5094898;28;8819;-61
2024/01/13 02:33:45;;;;;;;;;14.60;13.00;;;;;2.28;82.21;100891.56;5095772;28;9525;-60
2024/01/13 02:36:13;;;;;;;;;13.60;12.00;;;;;2.27;82.02;100899.50;5095922;28;8838;-61
2024/01/13 02:38:41;;;;;;;;;21.40;18.40;;;;;2.25;82.20;100894.28;5095039;28;8940;-59
2024/01/13 02:41:09;;;;;;;;;14.20;13.00;;;;;2.23;81.71;100896.13;5095499;28;8821;-58
2024/01/13 02:43:36;;;;;;;;;8.40;6.00;;;;;2.23;81.67;100884.75;5095015;28;8827;-58
2024/01/13 02:46:04;;;;;;;;;16.20;13.60;;;;;2.21;82.27;100887.41;5094407;28;8809;-59
2024/01/13 02:48:32;;;;;;;;;7.20;3.40;;;;;2.21;81.79;100876.88;5075579;28;8868;-60
2024/01/13 02:51:06;;;;;;;;;7.00;6.80;;;;;2.21;82.40;100882.16;5075470;28;8898;-59
2024/01/13 02:53:34;;;;;;;;;10.40;8.60;;;;;2.23;82.34;100882.09;5075520;28;8843;-60
2024/01/13 02:56:02;;;;;;;;;10.60;10.20;;;;;2.22;82.24;100881.28;5076401;28;8832;-60
2024/01/13 02:58:30;;;;;;;;;11.80;5.40;;;;;2.24;81.79;100879.44;5095479;28;8832;-61
2024/01/13 03:01:10;;;;;;;;;12.80;11.40;;;;;2.24;82.12;100876.81;5094752;28;8824;-60
2024/01/13 03:03:38;;;;;;;;;14.40;13.20;;;;;2.25;82.27;100873.28;5095194;28;8882;-58
2024/01/13 03:06:07;;;;;;;;;6.00;5.60;;;;;2.26;82.04;100875.00;5095441;28;8827;-59
2024/01/13 03:08:35;;;;;;;;;14.20;13.40;;;;;2.26;81.81;100864.50;5094974;28;8821;-60
2024/01/13 03:11:08;;;;;;;;;11.20;9.60;;;;;2.28;81.87;100861.81;5095226;28;8934;-59
2024/01/13 03:13:37;;;;;;;;;15.00;14.20;;;;;2.27;82.05;100845.19;5094464;28;8806;-59
2024/01/13 03:16:05;;;;;;;;;10.40;9.60;;;;;2.30;81.86;100841.59;5095203;28;8895;-61
2024/01/13 03:18:33;;;;;;;;;7.60;6.40;;;;;2.30;82.07;100839.84;5095636;28;9488;-58
2024/01/13 03:21:07;;;;;;;;;6.60;5.80;;;;;2.31;82.25;100844.19;5095393;28;8830;-59
2024/01/13 03:23:36;;;;;;;;;12.00;9.40;;;;;2.32;82.46;100853.78;5086329;28;8802;-60
2024/01/13 03:26:04;;;;;;;;;13.00;11.40;;;;;2.33;82.59;100838.88;5094568;28;8814;-61
2024/01/13 03:28:31;;;;;;;;;9.80;8.20;;;;;2.35;82.33;100837.91;5095263;28;8856;-58
2024/01/13 03:31:08;;;;;;;;;11.20;9.60;;;;;2.35;82.31;100832.66;5095324;28;8944;-61
2024/01/13 03:33:36;;;;;;;;;5.40;3.80;;;;;2.36;81.89;100834.38;5086857;28;8953;-61
2024/01/13 03:36:04;;;;;;;;;10.80;9.00;;;;;2.37;82.39;100825.59;5094126;28;8810;-60
2024/01/13 03:38:32;;;;;;;;;10.20;9.80;;;;;2.37;81.87;100822.97;5095278;28;8845;-61
2024/01/13 03:41:09;;;;;;;;;7.80;7.00;;;;;2.38;82.33;100821.19;5095644;28;8878;-61
2024/01/13 03:43:36;;;;;;;;;10.00;8.60;;;;;2.38;82.16;100821.19;5090878;28;8804;-58
2024/01/13 03:46:04;;;;;;;;;10.00;6.80;;;;;2.37;82.21;100815.09;5096474;28;8814;-59
2024/01/13 03:48:32;;;;;;;;;6.60;6.20;;;;;2.37;82.24;100809.84;5098130;28;8956;-58
2024/01/13 03:51:00;;;;;;;;;11.60;9.60;;;;;2.36;81.76;100808.09;5098633;28;8860;-59
2024/01/13 03:53:31;;;;;;;;;10.00;10.00;;;;;2.36;81.68;100804.63;5091523;28;8972;-59
2024/01/13 03:56:01;;;;;;;;;11.60;11.60;;;;;2.35;81.90;100803.75;5097428;28;8825;-59
2024/01/13 03:58:29;;;;;;;;;12.00;9.00;;;;;2.34;82.31;100799.41;5098659;28;8818;-59
2024/01/13 04:00:56;;;;;;;;;2.60;2.60;;;;;2.34;81.81;100795.94;5099168;28;8814;-59
2024/01/13 04:03:24;;;;;;;;;13.00;10.00;;;;;2.34;81.68;100796.78;5092379;28;8855;-59
2024/01/13 04:05:52;;;;;;;;;12.80;11.00;;;;;2.35;82.14;100797.66;5077883;28;9521;-60
2024/01/13 04:08:20;;;;;;;;;10.00;10.00;;;;;2.37;81.96;100793.22;5077586;28;8822;-61
2024/01/13 04:10:48;;;;;;;;;10.80;7.40;;;;;2.36;82.50;100800.22;5078281;28;8817;-61
2024/01/13 04:13:15;;;;;;;;;11.60;10.20;;;;;2.37;81.69;100791.44;5078406;28;8825;-59
2024/01/13 04:15:43;;;;;;;;;11.60;9.60;;;;;2.37;82.18;100796.72;5094363;28;8821;-61
2024/01/13 04:18:11;;;;;;;;;13.80;10.40;;;;;2.38;81.71;100806.31;5097910;28;8842;-58
2024/01/13 04:20:39;;;;;;;;;7.00;6.20;;;;;2.39;82.01;100801.88;5097433;28;8912;-58
2024/01/13 04:23:06;;;;;;;;;8.80;7.80;;;;;2.39;81.70;100797.50;5097360;28;8961;-58
2024/01/13 04:25:34;;;;;;;;;9.00;9.00;;;;;2.40;82.06;100782.59;5098185;28;9455;-58
2024/01/13 04:28:02;;;;;;;;;8.80;7.20;;;;;2.40;81.69;100788.72;5098770;28;9541;-58
2024/01/13 04:30:30;;;;;;;;;10.00;8.20;;;;;2.42;81.95;100793.94;5098009;28;8833;-58
2024/01/13 04:32:58;;;;;;;;;11.80;11.20;;;;;2.42;82.31;100786.03;5097539;28;8851;-60
2024/01/13 04:35:27;;;;;;;;;7.60;6.80;;;;;2.42;82.56;100781.63;5097933;28;8950;-59
2024/01/13 04:37:54;;;;;;;;;16.00;15.00;;;;;2.43;82.10;100775.44;5097399;28;8808;-60
2024/01/13 04:40:22;;;;;;;;;6.00;6.00;;;;;2.43;81.62;100775.44;5097820;28;8831;-59
2024/01/13 04:42:50;;;;;;;;;14.60;12.20;;;;;2.44;82.31;100776.31;5097784;28;8808;-57
2024/01/13 04:45:18;;;;;;;;;10.80;9.40;;;;;2.44;81.85;100779.78;5097417;28;9546;-61
2024/01/13 04:47:46;;;;;;;;;9.40;8.60;;;;;2.44;82.19;100774.53;5097474;28;9522;-59
2024/01/13 04:50:14;;;;;;;;;13.40;10.40;;;;;2.45;82.27;100767.53;5097014;28;8922;-61
2024/01/13 04:52:41;;;;;;;;;6.40;5.00;;;;;2.45;82.46;100762.28;5097281;28;8959;-60
2024/01/13 04:55:09;;;;;;;;;15.80;11.00;;;;;2.46;82.27;100766.63;5097011;28;8818;-61
2024/01/13 04:57:36;;;;;;;;;12.40;7.40;;;;;2.47;82.25;100773.59;5097314;28;8840;-57
2024/01/13 05:00:04;;;;;;;;;6.20;4.20;;;;;2.47;81.81;100758.69;5096325;28;8851;-61
2024/01/13 05:02:33;;;;;;;;;7.60;7.00;;;;;2.49;82.02;100761.28;5095257;28;8926;-59
2024/01/13 05:05:13;;;;;;;;;7.00;6.40;;;;;2.50;82.08;100758.56;5095781;28;8827;-60
2024/01/13 05:07:41;;;;;;;;;7.80;6.40;;;;;2.51;81.98;100754.19;5095774;28;8843;-60
2024/01/13 05:10:08;;;;;;;;;8.80;8.80;;;;;2.50;81.71;100757.72;5096599;28;8819;-62
2024/01/13 05:12:36;;;;;;;;;5.60;5.60;;;;;2.50;81.57;100755.94;5096592;28;8815;-59
2024/01/13 05:15:04;;;;;;;;;11.60;9.40;;;;;2.50;82.13;100753.31;5096034;28;8822;-59
2024/01/13 05:17:31;;;;;;;;;11.60;9.00;;;;;2.50;82.25;100753.31;5097360;28;8827;-59
2024/01/13 05:19:59;;;;;;;;;3.00;1.00;;;;;2.50;81.88;100757.72;5097151;28;8826;-61
2024/01/13 05:22:27;;;;;;;;;8.80;7.40;;;;;2.50;82.41;100753.31;5096275;28;8844;-59
2024/01/13 05:24:55;;;;;;;;;6.80;6.60;;;;;2.50;81.64;100753.31;5079728;28;8810;-59
2024/01/13 05:27:22;;;;;;;;;6.40;6.20;;;;;2.50;82.36;100752.47;5076561;28;8833;-59
2024/01/13 05:29:50;;;;;;;;;0.40;0.40;;;;;2.50;81.95;100747.22;5076570;28;8832;-61
2024/01/13 05:32:17;;;;;;;;;9.60;8.40;;;;;2.50;82.19;100747.22;5076476;28;8891;-58
2024/01/13 05:34:45;;;;;;;;;12.00;11.20;;;;;2.48;82.22;100746.38;5082589;28;8795;-61
2024/01/13 05:37:13;;;;;;;;;13.20;11.20;;;;;2.48;81.70;100747.25;5096233;28;8818;-58
2024/01/13 05:39:40;;;;;;;;;8.00;7.20;;;;;2.48;82.22;100749.88;5096961;28;8840;-60
2024/01/13 05:42:08;;;;;;;;;12.80;12.00;;;;;2.49;82.24;100753.41;5095722;28;8960;-61
2024/01/13 05:44:36;;;;;;;;;9.00;7.80;;;;;2.49;81.93;100751.59;5082613;28;9457;-59
2024/01/13 05:47:04;;;;;;;;;6.80;6.80;;;;;2.49;81.79;100750.75;5075531;28;8913;-61
2024/01/13 05:49:31;;;;;;;;;1.80;1.00;;;;;2.49;81.70;100748.97;5075981;28;8834;-61
2024/01/13 05:51:59;;;;;;;;;7.60;7.60;;;;;2.51;81.72;100762.06;5076354;28;8829;-61
2024/01/13 05:54:27;;;;;;;;;9.20;8.40;;;;;2.50;81.69;100753.31;5079096;28;8822;-60
2024/01/13 05:56:55;;;;;;;;;11.20;8.60;;;;;2.50;82.11;100742.81;5096524;28;9478;-62
2024/01/13 05:59:22;;;;;;;;;10.80;7.80;;;;;2.50;81.92;100750.69;5096839;28;8871;-61
2024/01/13 06:01:50;;;;;;;;;7.40;6.20;;;;;2.50;82.56;100737.56;5096600;28;8818;-61
2024/01/13 06:04:18;;;;;;;;;12.00;10.40;;;;;2.51;82.35;100748.94;5077718;28;8816;-60
2024/01/13 06:06:46;;;;;;;;;7.80;6.40;;;;;2.52;82.05;100743.63;5074860;28;8836;-58
2024/01/13 06:09:13;;;;;;;;;6.20;4.40;;;;;2.53;82.31;100742.72;5074159;28;8836;-60
2024/01/13 06:11:41;;;;;;;;;5.60;5.20;;;;;2.53;82.01;100736.59;5073808;28;8828;-58
2024/01/13 06:14:09;;;;;;;;;8.60;6.40;;;;;2.53;82.30;100736.59;5080541;28;8918;-61
2024/01/13 06:16:36;;;;;;;;;10.80;10.80;;;;;2.50;81.83;100732.28;5094383;28;8871;-61
2024/01/13 06:19:05;;;;;;;;;9.20;9.00;;;;;2.48;82.28;100715.72;5094714;28;8857;-61
2024/01/13 06:21:33;;;;;;;;;8.20;8.20;;;;;2.47;82.31;100716.63;5095021;28;8829;-61
2024/01/13 06:24:01;;;;;;;;;9.80;9.20;;;;;2.46;82.36;100720.19;5095060;28;8818;-61
2024/01/13 06:26:29;;;;;;;;;12.60;10.80;;;;;2.46;81.81;100719.31;5096033;28;8822;-61
2024/01/13 06:28:57;;;;;;;;;11.80;11.80;;;;;2.45;82.59;100731.63;5096459;28;9531;-60
2024/01/13 06:31:24;;;;;;;;;7.40;6.20;;;;;2.46;81.98;100735.94;5095884;28;8834;-61
2024/01/13 06:33:52;;;;;;;;;10.60;9.80;;;;;2.47;82.47;100721.03;5095313;28;8805;-60
2024/01/13 06:36:20;;;;;;;;;6.80;6.00;;;;;2.47;82.38;100721.91;5095434;28;8805;-61
2024/01/13 06:38:47;;;;;;;;;12.00;10.60;;;;;2.46;82.14;100716.69;5095377;28;8813;-61
2024/01/13 06:41:15;;;;;;;;;8.60;6.00;;;;;2.43;82.37;100709.75;5095501;28;8813;-61
2024/01/13 06:43:43;;;;;;;;;10.00;6.80;;;;;2.42;82.22;100713.31;5095677;28;8836;-61
2024/01/13 06:46:10;;;;;;;;;9.80;6.80;;;;;2.42;82.18;100709.84;5096112;28;8870;-61
2024/01/13 06:48:38;;;;;;;;;9.20;9.00;;;;;2.41;82.44;100687.94;5096271;28;8828;-61
2024/01/13 06:51:06;;;;;;;;;6.00;5.00;;;;;2.39;82.14;100684.53;5094884;28;8814;-58
2024/01/13 06:53:34;;;;;;;;;8.60;6.40;;;;;2.39;82.64;100671.38;5075788;28;8895;-61
2024/01/13 06:56:02;;;;;;;;;9.40;8.20;;;;;2.40;82.00;100659.94;5075454;28;8831;-60
2024/01/13 06:58:29;;;;;;;;;9.00;8.60;;;;;2.39;82.34;100647.72;5075927;28;9485;-61
2024/01/13 07:00:58;;;;;;;;;9.40;8.80;;;;;2.38;82.29;100635.50;5091897;28;9518;-58
2024/01/13 07:03:27;;;;;;;;;6.00;6.00;;;;;2.37;82.24;100646.06;5095419;28;9634;-59
2024/01/13 07:05:55;;;;;;;;;12.40;11.60;;;;;2.34;82.55;100641.78;5095483;28;8902;-60
2024/01/13 07:08:23;;;;;;;;;3.20;3.00;;;;;2.32;82.50;100643.59;5095749;28;8814;-60
2024/01/13 07:10:53;;;;;;;;;8.80;8.20;;;;;2.32;82.17;100634.84;5095446;28;8852;-59
2024/01/13 07:13:21;;;;;;;;;8.20;7.40;;;;;2.32;82.80;100659.38;5094941;28;8860;-58
2024/01/13 07:15:49;;;;;;;;;12.00;10.00;;;;;2.33;82.88;100655.81;5095224;28;8848;-60
2024/01/13 07:18:17;;;;;;;;;11.60;8.20;;;;;2.34;82.77;100647.03;5099559;28;8967;-59
2024/01/13 07:20:45;;;;;;;;;6.40;6.00;;;;;2.36;81.88;100647.81;5084272;28;8834;-59
2024/01/13 07:23:13;;;;;;;;;9.00;9.00;;;;;2.38;82.25;100630.25;5078950;28;8822;-59
2024/01/13 07:25:40;;;;;;;;;6.00;5.60;;;;;2.40;82.01;100631.06;5078626;28;8821;-58
2024/01/13 07:28:08;;;;;;;;;9.80;9.00;;;;;2.42;82.18;100610.81;5079038;28;9466;-59
2024/01/13 07:30:36;;;;;;;;;5.60;5.60;;;;;2.45;82.81;100608.09;5078670;28;8826;-58
2024/01/13 07:33:04;;;;;;;;;10.40;9.20;;;;;2.48;82.13;100610.59;5078893;28;8914;-60
2024/01/13 07:35:32;;;;;;;;;11.60;9.80;;;;;2.49;82.15;100604.44;5078485;28;8854;-59
2024/01/13 07:38:00;;;;;;;;;9.00;9.00;;;;;2.51;82.01;100584.19;5078696;28;8813;-59
2024/01/13 07:40:28;;;;;;;;;9.20;8.20;;;;;2.53;82.36;100584.16;5078712;28;8859;-59
2024/01/13 07:42:56;;;;;;;;;10.60;9.40;;;;;2.53;82.62;100579.78;5086930;28;8810;-58
2024/01/13 07:45:23;;;;;;;;;3.40;3.40;;;;;2.55;81.99;100554.28;5098278;28;8814;-59
2024/01/13 07:47:51;;;;;;;;;2.60;2.60;;;;;2.56;82.34;100542.84;5098594;28;8838;-59
2024/01/13 07:50:19;;;;;;;;;15.60;14.00;;;;;2.57;82.45;100544.56;5097463;28;8829;-60
2024/01/13 07:52:47;;;;;;;;;9.40;9.40;;;;;2.58;82.23;100546.28;5097640;28;8832;-61
2024/01/13 07:55:15;;;;;;;;;4.80;4.80;;;;;2.58;82.91;100546.28;5092921;28;8927;-59
2024/01/13 07:57:42;;;;;;;;;9.00;8.80;;;;;2.59;82.70;100534.00;5077447;28;8850;-59
2024/01/13 08:00:12;;;;;;;;;9.80;8.20;;;;;2.59;82.72;100537.47;5077251;28;8836;-58
2024/01/13 08:02:39;;;;;;;;;12.00;11.20;;;;;2.61;82.17;100540.03;5077613;28;8832;-61
2024/01/13 08:05:07;;;;;;;;;11.60;11.20;;;;;2.61;82.99;100535.66;5077151;28;8850;-59
2024/01/13 08:07:35;;;;;;;;;11.60;9.00;;;;;2.62;81.91;100526.84;5076540;28;8982;-60
2024/01/13 08:10:03;;;;;;;;;7.80;7.40;;;;;2.64;82.51;100548.66;5076682;28;8828;-60
2024/01/13 08:12:30;;;;;;;;;8.00;8.00;;;;;2.67;82.52;100555.59;5076939;28;8852;-58
2024/01/13 08:14:58;;;;;;;;;8.60;7.00;;;;;2.68;82.05;100541.53;5076839;28;8881;-58
2024/01/13 08:17:26;;;;;;;;;8.20;7.40;;;;;2.69;81.94;100530.09;5089336;28;8932;-59
2024/01/13 08:19:54;;;;;;;;;7.20;6.60;;;;;2.72;82.71;100545.78;5097701;28;8811;-59
2024/01/13 08:22:21;;;;;;;;;8.60;6.80;;;;;2.72;82.57;100546.59;5098240;28;9489;-59
2024/01/13 08:24:49;;;;;;;;;9.40;7.80;;;;;2.74;82.57;100557.91;5097882;28;8815;-60
2024/01/13 08:27:17;;;;;;;;;8.40;6.40;;;;;2.74;82.61;100541.31;5097257;28;9626;-60
2024/01/13 08:29:44;;;;;;;;;6.40;4.80;;;;;2.75;81.81;100522.84;5097790;28;8829;-59
2024/01/13 08:32:12;;;;;;;;;4.40;3.60;;;;;2.75;82.57;100541.25;5097780;28;8822;-59
2024/01/13 08:34:41;;;;;;;;;9.60;8.80;;;;;2.76;82.50;100550.84;5097679;28;8833;-58
2024/01/13 08:37:09;;;;;;;;;8.80;6.80;;;;;2.78;81.76;100543.75;5097530;28;8895;-60
2024/01/13 08:39:37;;;;;;;;;6.40;6.00;;;;;2.78;82.52;100521.84;5097433;28;8947;-59
2024/01/13 08:42:05;;;;;;;;;7.40;7.00;;;;;2.78;82.91;100533.22;5097711;28;8821;-58
2024/01/13 08:44:33;;;;;;;;;9.00;7.00;;;;;2.79;82.24;100532.31;5097574;28;8909;-59
2024/01/13 08:47:01;;;;;;;;;9.60;9.40;;;;;2.81;82.26;100522.59;5097404;28;8837;-59
2024/01/13 08:49:29;;;;;;;;;7.80;7.00;;;;;2.83;82.18;100522.53;5097626;28;8829;-59
2024/01/13 08:51:56;;;;;;;;;5.20;4.00;;;;;2.85;82.05;100515.44;5096502;28;8832;-59
2024/01/13 08:54:24;;;;;;;;;6.00;4.00;;;;;2.86;82.31;100514.50;5096321;28;8819;-59
2024/01/13 08:56:52;;;;;;;;;5.80;4.40;;;;;2.87;82.12;100522.34;5095974;28;8896;-58
2024/01/13 08:59:20;;;;;;;;;4.00;4.00;;;;;2.88;82.30;100518.78;5096049;28;8901;-59
2024/01/13 09:01:47;;;;;;;;;4.40;4.00;;;;;2.90;82.28;100503.84;5096641;28;8831;-60
2024/01/13 09:04:15;;;;;;;;;7.80;6.80;;;;;2.91;82.32;100496.78;5095539;28;8827;-59
2024/01/13 09:06:43;;;;;;;;;6.80;6.00;;;;;2.92;82.01;100515.16;5095478;28;9469;-58
2024/01/13 09:09:11;;;;;;;;;6.60;6.40;;;;;2.95;81.84;100516.81;5095203;28;8803;-59
2024/01/13 09:11:38;;;;;;;;;3.60;3.60;;;;;2.96;81.95;100503.56;5095224;28;8837;-58
2024/01/13 09:14:11;;;;;;;;;3.40;1.00;;;;;2.98;82.24;100520.16;5095670;28;8825;-60
2024/01/13 09:16:41;;;;;;;;;4.00;3.20;;;;;3.02;82.05;100529.63;5095652;28;8885;-58
2024/01/13 09:19:09;;;;;;;;;5.80;3.80;;;;;3.04;81.99;100522.53;5095709;28;8906;-59
2024/01/13 09:21:38;;;;;;;;;6.40;6.40;;;;;3.06;81.95;100512.81;5095291;28;8876;-59
2024/01/13 09:24:11;;;;;;;;;6.60;6.60;;;;;3.08;81.77;100515.38;5096446;28;8822;-59
2024/01/13 09:26:40;;;;;;;;;2.20;2.20;;;;;3.10;81.72;100524.09;5096861;28;9499;-59
2024/01/13 09:29:08;;;;;;;;;6.40;6.40;;;;;3.10;82.16;100524.91;5085280;28;9540;-60
2024/01/13 09:31:35;;;;;;;;;4.00;3.00;;;;;3.10;81.67;100522.28;5075663;28;8991;-61
2024/01/13 09:34:07;;;;;;;;;4.00;3.20;;;;;3.08;82.28;100508.34;5075918;28;8897;-58
2024/01/13 09:36:37;;;;;;;;;5.60;4.20;;;;;3.05;81.95;100490.06;5076172;28;8932;-58
2024/01/13 09:39:10;;;;;;;;;4.00;3.60;;;;;3.04;82.26;100493.59;5074727;28;8832;-59
2024/01/13 09:41:40;;;;;;;;;4.40;4.40;;;;;3.03;81.71;100489.25;5087898;28;8813;-59
2024/01/13 09:44:07;;;;;;;;;6.00;5.60;;;;;3.02;82.09;100516.47;5095936;28;8822;-60
2024/01/13 09:46:35;;;;;;;;;5.60;4.80;;;;;3.01;82.08;100512.16;5096334;28;8850;-58
2024/01/13 09:49:03;;;;;;;;;10.00;7.40;;;;;2.99;82.01;100516.63;5096051;28;8841;-58
2024/01/13 09:51:31;;;;;;;;;3.60;3.20;;;;;3.01;82.49;100524.41;5093843;28;8825;-58
2024/01/13 09:54:01;;;;;;;;;4.40;4.20;;;;;3.01;82.59;100514.78;5095724;28;8891;-59
2024/01/13 09:56:30;;;;;;;;;7.00;6.40;;;;;3.02;82.49;100519.13;5095701;28;8845;-59
2024/01/13 09:58:57;;;;;;;;;11.40;10.20;;;;;3.04;82.60;100519.06;5095622;28;8830;-60
2024/01/13 10:01:25;;;;;;;;;7.80;7.00;;;;;3.04;82.08;100519.91;5095586;28;8900;-58
2024/01/13 10:04:01;;;;;;;;;6.00;6.00;;;;;3.05;82.00;100511.13;5096106;28;8822;-59
2024/01/13 10:06:29;;;;;;;;;8.60;6.40;;;;;3.05;82.04;100505.00;5096143;28;8826;-61
2024/01/13 10:08:57;;;;;;;;;6.00;6.00;;;;;3.07;82.10;100495.25;5095862;28;8931;-61
2024/01/13 10:11:39;;;;;;;;;9.00;8.20;;;;;3.06;81.72;100491.78;5090593;28;8897;-58
2024/01/13 10:14:07;;;;;;;;;9.20;8.20;;;;;3.08;82.31;100494.34;5075458;28;8840;-58
2024/01/13 10:16:35;;;;;;;;;9.00;7.80;;;;;3.08;82.62;100494.34;5080735;28;8870;-58
2024/01/13 10:19:02;;;;;;;;;6.40;6.00;;;;;3.07;82.38;100490.88;5095328;28;8829;-59
2024/01/13 10:21:31;;;;;;;;;3.60;1.80;;;;;3.07;82.25;100492.63;5095136;28;8830;-58
2024/01/13 10:24:06;;;;;;;;;7.80;6.80;;;;;3.03;82.61;100486.63;5095368;28;8857;-58
2024/01/13 10:26:35;;;;;;;;;10.40;7.40;;;;;3.00;82.21;100483.25;5095516;28;8826;-60
2024/01/13 10:29:03;;;;;;;;;11.60;11.00;;;;;2.97;82.10;100479.00;5095587;28;8814;-59
2024/01/13 10:31:32;;;;;;;;;9.40;9.00;;;;;2.95;82.75;100480.81;5095483;28;8900;-58
2024/01/13 10:34:05;;;;;;;;;3.00;3.00;;;;;2.95;82.92;100493.13;5095478;28;8899;-60
2024/01/13 10:36:33;;;;;;;;;8.20;7.40;;;;;2.92;82.42;100474.84;5094702;28;9514;-60
2024/01/13 10:39:01;;;;;;;;;10.00;8.20;;;;;2.90;82.48;100479.31;5093998;28;8831;-61
2024/01/13 10:41:29;;;;;;;;;9.60;8.80;;;;;2.88;82.79;100476.72;5094826;28;8848;-58
2024/01/13 10:43:58;;;;;;;;;6.80;6.80;;;;;2.86;83.27;100475.06;5095226;28;8817;-59
2024/01/13 10:46:27;;;;;;;;;9.00;7.00;;;;;2.84;82.70;100464.63;5095317;28;8859;-60
2024/01/13 10:48:54;;;;;;;;;15.00;14.60;;;;;2.82;82.91;100477.00;5094680;28;8833;-58
2024/01/13 10:51:22;;;;;;;;;7.40;6.40;;;;;2.82;82.99;100474.38;5096450;28;8840;-61
2024/01/13 10:54:01;;;;;;;;;10.80;9.80;;;;;2.84;83.20;100469.88;5099077;28;8963;-59
2024/01/13 10:56:29;;;;;;;;;7.00;7.00;;;;;2.84;82.40;100443.59;5098469;28;8841;-61
2024/01/13 10:58:57;;;;;;;;;10.00;9.40;;;;;2.85;83.24;100442.69;5098763;28;8837;-59
2024/01/13 11:01:25;;;;;;;;;10.00;10.00;;;;;2.86;83.28;100439.13;5098028;28;8848;-60
2024/01/13 11:04:00;;;;;;;;;11.20;9.00;;;;;2.85;83.16;100442.69;5098452;28;8848;-60
2024/01/13 11:06:28;;;;;;;;;10.00;9.00;;;;;2.85;83.21;100434.78;5098405;28;8841;-61
2024/01/13 11:08:57;;;;;;;;;9.40;8.60;;;;;2.85;83.01;100433.91;5097522;28;8880;-58
2024/01/13 11:11:24;;;;;;;;;13.00;11.20;;;;;2.82;82.65;100429.66;5097835;28;8821;-60
2024/01/13 11:14:05;;;;;;;;;9.40;9.00;;;;;2.81;83.46;100438.44;5097774;28;8837;-59
2024/01/13 11:16:33;;;;;;;;;6.00;5.60;;;;;2.79;83.47;100426.31;5097392;28;8945;-61
2024/01/13 11:19:00;;;;;;;;;4.00;3.00;;;;;2.77;83.51;100410.59;5098305;28;8827;-58
2024/01/13 11:21:28;;;;;;;;;5.60;5.60;;;;;2.78;83.50;100414.91;5098241;28;8828;-61
2024/01/13 11:24:10;;;;;;;;;8.20;7.00;;;;;2.78;83.51;100403.53;5098060;28;8839;-59
2024/01/13 11:26:38;;;;;;;;;12.60;12.00;;;;;2.78;83.63;100391.25;5098419;28;8800;-58
2024/01/13 11:29:06;;;;;;;;;9.20;8.20;;;;;2.79;83.18;100382.44;5098790;28;8815;-58
2024/01/13 11:31:34;;;;;;;;;9.00;7.80;;;;;2.84;83.59;100380.50;5098462;28;9604;-59
2024/01/13 11:34:13;;;;;;;;;10.40;9.80;;;;;2.87;83.30;100375.09;5097948;28;8830;-57
2024/01/13 11:36:40;;;;;;;;;6.60;5.60;;;;;2.87;83.45;100375.09;5098331;28;8949;-61
2024/01/13 11:39:08;;;;;;;;;15.40;12.40;;;;;2.86;83.42;100368.13;5097559;28;8828;-60
2024/01/13 11:41:36;;;;;;;;;10.00;7.40;;;;;2.85;83.60;100374.31;5097221;28;8822;-61
2024/01/13 11:44:05;;;;;;;;;7.00;6.80;;;;;2.80;83.65;100368.38;5097804;28;8830;-58